Time;durP1;ratioP1;P1;durP2;ratioP2;P2;SDS_P1;SDS_P2;PMS_P1;PMS_P2;Temp;Humidity;BMP_temperature;BMP_pressure;BME280_temperature;BME280_humidity;BME280_pressure;Samples;Min_cycle;Max_cycle;Signal;HPM_P1;HPM_P2
2022/09/15 00:01:23;;;;;;;3.70;1.43;;;;;;;19.73;75.20;96832.59;8316612;28;20265;-78
2022/09/15 00:05:27;;;;;;;4.07;1.80;;;;;;;19.75;75.35;96829.81;8316519;28;20550;-77
2022/09/15 00:09:30;;;;;;;3.37;1.80;;;;;;;19.76;75.39;96834.91;8316721;28;20251;-78
2022/09/15 00:13:33;;;;;;;3.97;1.80;;;;;;;19.79;74.95;96833.78;8316134;28;20548;-77
2022/09/15 00:17:36;;;;;;;5.53;1.87;;;;;;;19.80;74.67;96838.03;8316083;28;20277;-78
2022/09/15 00:21:41;;;;;;;3.13;1.63;;;;;;;19.80;74.84;96836.25;8315933;28;20548;-77
2022/09/15 00:25:45;;;;;;;4.70;1.87;;;;;;;19.77;74.62;96823.44;8315853;28;20230;-78
2022/09/15 00:29:48;;;;;;;3.87;1.80;;;;;;;19.78;75.09;96829.50;8315634;28;20456;-79
2022/09/15 00:33:54;;;;;;;8.70;1.80;;;;;;;19.81;74.79;96832.66;8315690;28;20234;-81
2022/09/15 00:37:58;;;;;;;4.00;1.80;;;;;;;19.81;74.75;96835.28;8315802;28;20242;-80
2022/09/15 00:42:01;;;;;;;7.00;2.20;;;;;;;19.80;74.56;96835.41;8315349;28;20240;-81
2022/09/15 00:46:04;;;;;;;4.30;1.90;;;;;;;19.79;75.16;96828.53;8315161;28;20233;-81
2022/09/15 00:50:10;;;;;;;5.17;1.83;;;;;;;19.78;75.08;96826.88;8315408;28;20247;-80
2022/09/15 00:54:17;;;;;;;4.50;1.97;;;;;;;19.83;74.14;96822.00;8315160;28;20254;-81
2022/09/15 00:58:24;;;;;;;2.67;1.70;;;;;;;19.81;74.50;96818.69;8315072;28;20235;-78
2022/09/15 01:02:29;;;;;;;3.30;1.90;;;;;;;19.82;74.90;96822.94;8314681;28;20299;-78
2022/09/15 01:06:35;;;;;;;5.10;1.80;;;;;;;19.83;74.50;96822.00;8314546;28;20554;-79
2022/09/15 01:10:40;;;;;;;4.37;1.73;;;;;;;19.79;74.42;96818.03;8314848;28;20257;-78
2022/09/15 01:14:43;;;;;;;8.27;1.90;;;;;;;19.79;74.70;96823.28;8314595;28;20235;-79
2022/09/15 01:18:51;;;;;;;3.07;1.80;;;;;;;19.82;74.19;96823.78;8314436;28;20234;-78
2022/09/15 01:23:07;;;;;;;4.87;1.90;;;;;;;19.86;73.54;96819.88;8313962;28;20236;-78
2022/09/15 01:27:36;;;;;;;3.63;2.10;;;;;;;19.80;74.03;96820.50;8314458;28;20262;-78
2022/09/15 01:36:12;;;;;;;3.63;1.80;;;;;;;19.84;74.40;96818.41;8313365;28;20232;-78
2022/09/15 01:40:15;;;;;;;7.83;1.87;;;;;;;19.80;74.87;96817.03;8314125;28;20239;-78
2022/09/15 01:44:21;;;;;;;4.53;1.97;;;;;;;19.81;74.54;96811.63;8313868;28;20255;-78
2022/09/15 01:48:27;;;;;;;4.33;2.13;;;;;;;19.79;75.42;96820.66;8313955;28;20342;-78
2022/09/15 01:52:30;;;;;;;3.30;1.90;;;;;;;19.78;75.39;96797.97;8313958;28;20231;-78
2022/09/15 01:56:33;;;;;;;6.13;2.07;;;;;;;19.76;75.32;96797.31;8313900;28;20309;-79
2022/09/15 02:00:39;;;;;;;3.73;2.10;;;;;;;19.81;75.08;96795.06;8313865;28;20248;-79
2022/09/15 02:04:48;;;;;;;8.03;2.33;;;;;;;19.79;75.31;96794.38;8313407;28;20257;-78
2022/09/15 02:08:54;;;;;;;5.30;2.10;;;;;;;19.76;75.47;96789.44;8313375;28;20235;-78
2022/09/15 02:13:00;;;;;;;6.90;1.90;;;;;;;19.77;75.79;96791.91;8315401;28;20244;-78
2022/09/15 02:17:04;;;;;;;4.83;2.00;;;;;;;19.78;76.07;96782.22;8320071;28;20234;-78
2022/09/15 02:21:11;;;;;;;6.37;2.00;;;;;;;19.75;75.69;96787.78;8319756;28;23262;-78
2022/09/15 02:25:17;;;;;;;5.93;2.10;;;;;;;19.80;75.96;96782.88;8319827;28;20240;-78
2022/09/15 02:29:22;;;;;;;3.63;1.80;;;;;;;19.79;76.03;96782.06;8319443;28;20251;-79
2022/09/15 02:33:28;;;;;;;3.90;2.00;;;;;;;19.83;75.30;96777.31;8319343;28;20236;-78
2022/09/15 02:37:33;;;;;;;4.57;2.17;;;;;;;19.82;75.43;96771.25;8319407;28;20239;-78
2022/09/15 02:41:36;;;;;;;3.77;1.90;;;;;;;19.86;75.46;96766.53;8319131;28;20385;-78
2022/09/15 02:45:40;;;;;;;3.47;1.90;;;;;;;19.81;75.38;96766.97;8319058;28;20428;-78
2022/09/15 02:49:42;;;;;;;6.80;2.00;;;;;;;19.83;75.43;96757.13;8318969;28;20485;-79
2022/09/15 02:53:46;;;;;;;4.40;1.97;;;;;;;19.85;75.02;96754.34;8318760;28;20236;-79
2022/09/15 02:57:49;;;;;;;4.80;2.00;;;;;;;19.77;75.73;96756.94;8318297;28;20278;-78
2022/09/15 03:01:52;;;;;;;3.27;1.70;;;;;;;19.73;76.29;96746.72;8318312;28;20241;-78
2022/09/15 03:06:15;;;;;;;4.57;2.13;;;;;;;19.75;75.62;96743.16;8318304;28;20483;-78
2022/09/15 03:10:19;;;;;;;6.03;2.00;;;;;;;19.79;75.76;96747.91;8318396;28;20246;-80
2022/09/15 03:14:21;;;;;;;2.60;1.80;;;;;;;19.81;75.55;96751.22;8318175;28;20308;-80
2022/09/15 03:18:24;;;;;;;6.80;2.40;;;;;;;19.76;76.05;96745.59;8318208;28;20239;-79
2022/09/15 03:22:27;;;;;;;3.77;1.93;;;;;;;19.85;75.65;96746.47;8317854;28;20550;-79
2022/09/15 03:26:31;;;;;;;7.90;2.47;;;;;;;19.89;75.60;96745.19;8317721;28;20239;-80
2022/09/15 03:30:34;;;;;;;6.43;2.30;;;;;;;19.87;75.67;96749.75;8317601;28;20236;-79
2022/09/15 03:34:36;;;;;;;5.90;2.50;;;;;;;19.88;75.16;96748.81;8317626;28;20240;-80
2022/09/15 03:38:39;;;;;;;5.17;2.40;;;;;;;19.91;75.66;96740.59;8317535;28;20239;-80
2022/09/15 03:42:43;;;;;;;6.30;2.60;;;;;;;19.80;76.14;96728.56;8317204;28;20410;-80
2022/09/15 03:46:46;;;;;;;5.40;2.80;;;;;;;19.82;76.33;96733.63;8317307;28;20229;-80
2022/09/15 03:50:49;;;;;;;4.10;2.23;;;;;;;19.67;77.45;96731.56;8316948;28;20226;-79
2022/09/15 03:54:51;;;;;;;5.03;1.90;;;;;;;19.60;77.46;96729.72;8317134;28;20236;-79
2022/09/15 03:58:56;;;;;;;5.47;2.00;;;;;;;19.61;77.82;96729.56;8317016;28;20231;-78
2022/09/15 04:02:58;;;;;;;2.90;1.67;;;;;;;19.59;78.13;96734.16;8316686;28;20243;-79
2022/09/15 04:07:01;;;;;;;4.20;1.70;;;;;;;19.63;77.76;96729.41;8316375;28;20246;-79
2022/09/15 04:11:05;;;;;;;3.40;1.87;;;;;;;19.61;77.77;96737.44;8316545;28;20232;-79
2022/09/15 04:15:10;;;;;;;3.87;2.00;;;;;;;19.54;77.86;96724.09;8316322;28;20247;-79
2022/09/15 04:19:13;;;;;;;4.27;1.80;;;;;;;19.56;78.20;96723.94;8316385;28;20248;-79
2022/09/15 04:23:15;;;;;;;2.50;1.70;;;;;;;19.55;77.44;96724.91;8316100;28;20562;-79
2022/09/15 04:27:18;;;;;;;4.97;1.80;;;;;;;19.62;77.52;96718.06;8315959;28;20477;-80
2022/09/15 04:31:22;;;;;;;3.17;1.80;;;;;;;19.56;76.73;96721.31;8315703;28;20243;-79
2022/09/15 04:35:25;;;;;;;5.87;1.77;;;;;;;19.55;77.79;96719.66;8315141;28;20237;-78
2022/09/15 04:39:28;;;;;;;2.53;1.43;;;;;;;19.54;78.02;96720.66;8315713;28;20236;-79
2022/09/15 04:43:31;;;;;;;2.93;1.60;;;;;;;19.45;78.02;96724.19;8315391;28;20441;-79
2022/09/15 04:47:35;;;;;;;3.90;1.70;;;;;;;19.48;78.33;96718.66;8315317;28;20273;-79
2022/09/15 04:51:38;;;;;;;2.87;1.50;;;;;;;19.49;78.16;96715.03;8315184;28;20232;-82
2022/09/15 04:55:41;;;;;;;4.50;2.07;;;;;;;19.52;77.99;96714.75;8316893;28;20279;-84
2022/09/15 04:59:44;;;;;;;8.37;2.00;;;;;;;19.50;77.78;96708.81;8316671;28;20235;-84
2022/09/15 05:03:48;;;;;;;3.47;1.70;;;;;;;19.46;77.43;96718.00;8315912;28;20235;-84
2022/09/15 05:07:51;;;;;;;6.87;1.77;;;;;;;19.52;77.74;96714.75;8314526;28;20278;-84
2022/09/15 05:11:54;;;;;;;4.97;1.90;;;;;;;19.49;77.55;96715.03;8316122;28;20539;-85
2022/09/15 05:15:58;;;;;;;3.83;1.90;;;;;;;19.42;77.58;96716.63;8315772;28;20247;-84
2022/09/15 05:20:03;;;;;;;4.33;1.73;;;;;;;19.46;77.33;96712.75;8318220;28;20239;-84
2022/09/15 05:24:07;;;;;;;3.67;1.67;;;;;;;19.49;77.80;96715.03;8315799;28;20395;-85
2022/09/15 05:28:10;;;;;;;5.47;1.90;;;;;;;19.46;77.78;96710.13;8314615;28;20238;-85
2022/09/15 05:32:13;;;;;;;6.43;2.40;;;;;;;19.49;77.28;96713.22;8315899;28;20248;-87
2022/09/15 05:36:19;;;;;;;6.90;2.40;;;;;;;19.48;77.52;96719.47;8313008;28;20255;-85
2022/09/15 05:40:22;;;;;;;5.47;2.20;;;;;;;19.50;76.79;96712.25;8314508;28;20231;-85
2022/09/15 05:44:25;;;;;;;3.17;2.17;;;;;;;19.50;77.39;96717.50;8314260;28;20240;-85
2022/09/15 05:48:29;;;;;;;2.97;1.90;;;;;;;19.57;77.09;96720.34;8317136;28;20425;-84
2022/09/15 05:52:34;;;;;;;5.47;1.93;;;;;;;19.47;77.33;96717.81;8321101;28;20227;-84
2022/09/15 05:56:36;;;;;;;2.60;2.07;;;;;;;19.46;77.68;96716.19;8320917;28;20310;-84
2022/09/15 06:00:40;;;;;;;4.90;2.43;;;;;;;19.52;77.51;96710.31;8320768;28;20286;-84
2022/09/15 06:04:43;;;;;;;4.33;2.40;;;;;;;19.56;78.06;96700.31;8320559;28;20340;-85
2022/09/15 06:08:48;;;;;;;4.80;2.33;;;;;;;19.56;77.54;96700.31;8320627;28;20232;-84
2022/09/15 06:12:57;;;;;;;4.77;2.27;;;;;;;19.52;78.46;96696.38;8320154;28;20228;-84
2022/09/15 06:16:59;;;;;;;3.57;2.57;;;;;;;19.49;78.47;96700.09;8320397;28;20235;-84
2022/09/15 06:21:06;;;;;;;3.10;2.40;;;;;;;19.55;77.70;96711.78;8320256;28;20409;-81
2022/09/15 06:25:12;;;;;;;4.17;2.60;;;;;;;19.52;78.05;96705.06;8320040;28;20242;-84
2022/09/15 06:29:14;;;;;;;5.50;2.87;;;;;;;19.50;78.53;96707.00;8319666;28;20553;-84
2022/09/15 06:33:17;;;;;;;3.57;2.60;;;;;;;19.36;78.70;96712.00;8319990;28;20237;-84
2022/09/15 06:37:20;;;;;;;3.60;2.27;;;;;;;19.33;79.76;96718.38;8319624;28;20450;-84
2022/09/15 06:41:24;;;;;;;3.07;2.10;;;;;;;19.24;79.80;96741.13;8319375;28;20232;-84
2022/09/15 06:45:27;;;;;;;1.97;1.13;;;;;;;19.20;77.50;96784.38;8319304;28;20572;-85
2022/09/15 06:49:30;;;;;;;1.97;0.97;;;;;;;19.04;77.95;96806.06;8319339;28;20242;-83
2022/09/15 06:53:34;;;;;;;1.43;0.70;;;;;;;19.05;77.25;96817.38;8319182;28;20235;-83
2022/09/15 06:57:38;;;;;;;3.33;0.70;;;;;;;18.98;76.30;96792.69;8318916;28;20235;-84
2022/09/15 07:01:41;;;;;;;1.70;0.50;;;;;;;19.00;76.22;96785.50;8318737;28;20228;-84
2022/09/15 07:05:45;;;;;;;1.43;0.57;;;;;;;18.95;76.21;96802.53;8318602;28;20246;-84
2022/09/15 07:09:48;;;;;;;0.97;0.50;;;;;;;18.99;75.99;96818.78;8318343;28;20228;-82
2022/09/15 07:13:52;;;;;;;5.50;0.60;;;;;;;19.07;76.33;96829.34;8318482;28;20433;-83
2022/09/15 07:17:55;;;;;;;1.37;0.50;;;;;;;19.19;75.85;96821.28;8318640;28;20233;-83
2022/09/15 07:21:57;;;;;;;1.50;0.53;;;;;;;19.21;74.90;96833.28;8318344;28;20233;-84
2022/09/15 07:26:08;;;;;;;1.07;0.43;;;;;;;19.19;74.63;96850.13;8318189;28;20297;-83
2022/09/15 07:30:13;;;;;;;0.43;0.37;;;;;;;19.27;74.32;96860.72;8318094;28;20523;-81
2022/09/15 07:34:16;;;;;;;0.50;0.50;;;;;;;19.22;74.42;96866.41;8318017;28;20242;-84
2022/09/15 07:38:18;;;;;;;0.90;0.40;;;;;;;19.13;75.14;96873.41;8318078;28;20232;-84
2022/09/15 07:42:21;;;;;;;1.33;0.60;;;;;;;19.26;74.19;96872.19;8317760;28;20235;-85
2022/09/15 07:46:26;;;;;;;3.73;1.53;;;;;;;19.38;72.87;96873.63;8324591;28;20227;-83
2022/09/15 07:50:29;;;;;;;0.87;0.40;;;;;;;19.46;73.65;96886.84;8321191;28;20275;-85
2022/09/15 07:54:32;;;;;;;2.60;1.00;;;;;;;19.75;73.06;96893.69;8317329;28;20231;-79
2022/09/15 07:58:35;;;;;;;9.37;5.63;;;;;;;19.98;69.61;96904.53;8319177;28;20239;-89
2022/09/15 08:02:40;;;;;;;11.20;8.20;;;;;;;20.35;68.13;96903.44;8319234;28;20240;-88
2022/09/15 08:06:42;;;;;;;12.97;6.87;;;;;;;20.47;68.47;96909.28;8320266;28;20238;-89
2022/09/15 08:10:45;;;;;;;12.50;6.27;;;;;;;20.54;67.58;96918.19;8318831;28;20240;-85
2022/09/15 08:14:48;;;;;;;5.97;3.20;;;;;;;20.57;67.98;96924.94;8319460;28;20228;-84
2022/09/15 08:18:54;;;;;;;0.60;0.50;;;;;;;20.33;69.39;96923.00;8319408;28;20262;-83
2022/09/15 08:22:57;;;;;;;0.50;0.40;;;;;;;19.99;69.82;96915.84;8316423;28;20236;-82
2022/09/15 08:26:59;;;;;;;0.90;0.30;;;;;;;19.82;70.33;96928.88;8316139;28;20308;-82
2022/09/15 08:31:04;;;;;;;0.60;0.40;;;;;;;19.67;71.35;96930.34;8316034;28;20233;-80
2022/09/15 08:35:09;;;;;;;0.43;0.27;;;;;;;19.64;71.36;96933.25;8315990;28;20269;-82
2022/09/15 08:39:12;;;;;;;0.70;0.50;;;;;;;19.60;71.51;96938.00;8315866;28;20232;-85
2022/09/15 08:43:19;;;;;;;0.83;0.40;;;;;;;19.68;70.88;96942.50;8315858;28;20458;-82
2022/09/15 08:47:24;;;;;;;0.50;0.40;;;;;;;19.50;71.06;96959.06;8315479;28;20235;-82
2022/09/15 08:51:32;;;;;;;11.03;3.53;;;;;;;19.81;69.82;96957.91;8315607;28;20302;-86
2022/09/15 08:55:40;;;;;;;2.80;1.40;;;;;;;19.91;68.35;96966.53;8315572;28;20235;-88
2022/09/15 08:59:43;;;;;;;2.40;1.23;;;;;;;20.00;67.76;96977.94;8314922;28;20315;-87
2022/09/15 09:04:02;;;;;;;2.63;0.70;;;;;;;19.87;67.70;96976.50;8315150;28;20251;-86
2022/09/15 09:08:40;;;;;;;0.60;0.60;;;;;;;19.87;66.92;96975.69;8314260;28;20473;-83
2022/09/15 09:12:59;;;;;;;1.87;0.67;;;;;;;19.96;65.66;96985.31;8314410;28;20430;-81
2022/09/15 09:17:17;;;;;;;1.63;0.80;;;;;;;20.00;65.33;96983.19;8314704;28;20471;-81
2022/09/15 09:21:25;;;;;;;1.33;0.60;;;;;;;20.01;64.99;96983.06;8314941;28;20235;-83
2022/09/15 09:25:35;;;;;;;5.57;0.80;;;;;;;20.11;64.63;96980.34;8314959;28;20235;-82
2022/09/15 09:29:40;;;;;;;3.00;0.73;;;;;;;20.15;64.53;96986.94;8314973;28;20298;-81
2022/09/15 09:33:46;;;;;;;5.10;1.00;;;;;;;20.11;63.56;96991.69;8315687;28;20283;-84
2022/09/15 09:37:51;;;;;;;3.83;1.07;;;;;;;20.25;62.44;96985.03;8314760;28;20425;-84
2022/09/15 09:41:55;;;;;;;4.90;1.30;;;;;;;20.37;60.85;96990.06;8315952;28;20261;-85
2022/09/15 09:45:59;;;;;;;3.03;1.20;;;;;;;20.22;61.66;96993.25;8315267;28;20263;-83
2022/09/15 09:50:02;;;;;;;4.73;1.40;;;;;;;20.24;60.59;96993.94;8314986;28;20236;-87
2022/09/15 09:54:08;;;;;;;2.90;1.30;;;;;;;20.18;61.26;96994.53;8314522;28;20312;-85
2022/09/15 09:58:17;;;;;;;5.57;1.60;;;;;;;20.25;61.04;96992.94;8314306;28;20251;-81
2022/09/15 10:02:21;;;;;;;4.13;1.33;;;;;;;20.31;61.11;96991.50;8314289;28;20254;-84
2022/09/15 10:06:24;;;;;;;7.47;2.00;;;;;;;20.20;62.06;96997.84;8313822;28;20244;-78
2022/09/15 10:10:31;;;;;;;6.63;1.77;;;;;;;20.25;62.43;96995.56;8314357;28;20558;-77
2022/09/15 10:14:36;;;;;;;3.23;1.50;;;;;;;20.21;64.85;97001.28;8314090;28;20235;-77
2022/09/15 10:18:39;;;;;;;2.03;1.70;;;;;;;19.90;66.14;97002.50;8314119;28;20235;-78
2022/09/15 10:22:42;;;;;;;3.33;1.60;;;;;;;20.21;65.68;96999.47;8313824;28;20542;-77
2022/09/15 10:26:45;;;;;;;3.90;2.27;;;;;;;20.06;65.27;97003.63;8313310;28;20236;-78
2022/09/15 10:31:04;;;;;;;4.50;2.20;;;;;;;20.30;65.42;97005.63;8313491;28;20243;-76
2022/09/15 10:35:11;;;;;;;3.93;1.93;;;;;;;20.27;66.52;97009.38;8317179;28;20232;-77
2022/09/15 10:39:22;;;;;;;3.93;2.47;;;;;;;20.04;66.13;97011.66;8319763;28;20246;-78
2022/09/15 10:43:33;;;;;;;4.57;2.33;;;;;;;19.95;66.23;97003.84;8319490;28;20284;-78
2022/09/15 10:47:47;;;;;;;3.23;1.90;;;;;;;20.27;65.44;97000.66;8319382;28;20244;-78
2022/09/15 10:51:58;;;;;;;7.13;2.07;;;;;;;20.10;65.70;97000.56;8318964;28;20269;-77
2022/09/15 10:56:09;;;;;;;6.70;2.77;;;;;;;20.14;64.72;97000.22;8319189;28;20406;-77
2022/09/15 11:00:18;;;;;;;5.73;2.17;;;;;;;20.21;64.99;96993.41;8319238;28;20529;-78
2022/09/15 11:04:35;;;;;;;3.23;2.00;;;;;;;20.31;64.62;97002.00;8319092;28;20244;-78
2022/09/15 11:08:50;;;;;;;5.47;2.17;;;;;;;20.25;65.03;97000.00;8318731;28;20247;-78
2022/09/15 11:12:59;;;;;;;4.83;2.10;;;;;;;20.36;64.66;97004.19;8318145;28;20229;-77
2022/09/15 11:17:16;;;;;;;5.23;1.80;;;;;;;20.44;63.80;97002.44;8318650;28;20555;-78
2022/09/15 11:21:25;;;;;;;2.30;1.43;;;;;;;20.20;63.52;97007.50;8318934;28;20408;-79
2022/09/15 11:25:30;;;;;;;5.23;2.30;;;;;;;20.27;64.04;97008.56;8318310;28;20463;-78
2022/09/15 11:29:37;;;;;;;7.97;2.17;;;;;;;20.31;61.96;97008.13;8318285;28;20549;-77
2022/09/15 11:33:43;;;;;;;4.07;1.80;;;;;;;20.20;61.39;97016.25;8318399;28;20249;-75
2022/09/15 11:37:50;;;;;;;4.83;2.20;;;;;;;20.28;60.56;97021.56;8318135;28;20231;-77
2022/09/15 11:41:55;;;;;;;5.13;2.30;;;;;;;20.12;60.87;97016.16;8317893;28;20445;-76
2022/09/15 11:45:59;;;;;;;4.87;2.23;;;;;;;20.22;60.75;97026.56;8317645;28;20247;-77
2022/09/15 11:50:07;;;;;;;6.63;2.60;;;;;;;20.28;60.62;97018.94;8317758;28;20411;-78
2022/09/15 11:54:13;;;;;;;6.77;3.07;;;;;;;20.30;60.75;97016.97;8317113;28;20520;-78
2022/09/15 11:58:20;;;;;;;8.13;3.40;;;;;;;20.03;60.05;97019.69;8317132;28;20236;-78
2022/09/15 12:02:29;;;;;;;5.10;2.90;;;;;;;20.14;60.10;97018.63;8316822;28;20232;-79
2022/09/15 12:06:36;;;;;;;10.17;3.40;;;;;;;20.21;60.15;97031.00;8316305;28;20444;-78
2022/09/15 12:10:45;;;;;;;8.30;3.17;;;;;;;20.15;59.34;97029.00;8316679;28;20568;-79
2022/09/15 12:14:49;;;;;;;9.47;3.07;;;;;;;20.12;59.91;97026.66;8315978;28;20234;-77
2022/09/15 12:18:55;;;;;;;8.23;3.17;;;;;;;20.16;60.29;97035.06;8316317;28;20235;-80
2022/09/15 12:23:00;;;;;;;7.07;3.10;;;;;;;20.15;60.94;97029.00;8316250;28;20248;-85
2022/09/15 12:27:05;;;;;;;7.63;2.70;;;;;;;20.19;60.46;97030.34;8316443;28;20243;-78
2022/09/15 12:31:14;;;;;;;5.77;2.60;;;;;;;20.02;59.31;97044.31;8316057;28;20231;-79
2022/09/15 12:35:31;;;;;;;6.13;2.37;;;;;;;19.89;59.70;97040.25;8315903;28;20232;-79
2022/09/15 12:39:37;;;;;;;7.03;2.43;;;;;;;19.82;57.63;97040.97;8315877;28;20557;-80
2022/09/15 12:43:51;;;;;;;6.07;2.50;;;;;;;19.92;57.77;97052.28;8315830;28;20566;-79
2022/09/15 12:47:57;;;;;;;6.60;2.10;;;;;;;19.86;57.71;97052.88;8315246;28;20539;-80
2022/09/15 12:52:01;;;;;;;3.30;2.00;;;;;;;19.97;55.62;97049.19;8315708;28;20235;-83
2022/09/15 12:56:05;;;;;;;4.27;2.30;;;;;;;20.01;56.33;97051.38;8315518;28;20225;-80
2022/09/15 13:00:40;;;;;;;4.93;2.10;;;;;;;19.89;54.67;97053.38;8315373;28;20224;-75
2022/09/15 13:05:03;;;;;;;3.93;2.00;;;;;;;19.95;55.43;97062.47;8310927;28;20306;-76
2022/09/15 13:09:25;;;;;;;3.23;1.50;;;;;;;19.98;55.68;97061.38;8315069;28;20234;-75
2022/09/15 13:13:33;;;;;;;4.00;1.57;;;;;;;20.00;53.64;97056.78;8315045;28;20230;-76
2022/09/15 13:17:41;;;;;;;4.50;1.70;;;;;;;20.13;55.35;97062.50;8315082;28;20548;-76
2022/09/15 13:21:48;;;;;;;5.60;1.40;;;;;;;20.27;55.40;97051.44;8314833;28;20252;-75
2022/09/15 13:25:53;;;;;;;4.53;1.90;;;;;;;20.37;54.33;97051.38;8314205;28;20232;-76
2022/09/15 13:30:01;;;;;;;5.90;2.20;;;;;;;20.38;54.60;97046.94;8314221;28;20234;-78
2022/09/15 13:34:32;;;;;;;4.87;2.00;;;;;;;20.36;53.52;97049.72;8314742;28;20267;-76
2022/09/15 13:39:05;;;;;;;5.03;2.07;;;;;;;20.56;54.53;97052.16;8314000;28;20429;-78
2022/09/15 13:43:27;;;;;;;6.07;2.13;;;;;;;20.39;53.64;97043.31;8314584;28;20236;-78
2022/09/15 13:47:36;;;;;;;3.77;1.63;;;;;;;20.37;53.36;97046.13;8314521;28;20239;-78
2022/09/15 13:51:43;;;;;;;3.43;1.60;;;;;;;20.28;53.78;97042.59;8314334;28;20243;-77
2022/09/15 13:55:47;;;;;;;5.57;1.87;;;;;;;20.08;54.91;97047.16;8314131;28;20445;-78
2022/09/15 13:59:50;;;;;;;4.50;2.07;;;;;;;20.33;54.41;97041.31;8313807;28;20231;-77
2022/09/15 14:03:55;;;;;;;5.03;1.93;;;;;;;20.59;53.89;97038.72;8314141;28;20240;-77
2022/09/15 14:08:03;;;;;;;6.43;1.90;;;;;;;21.40;51.47;97046.28;8314005;28;20238;-77
2022/09/15 14:12:09;;;;;;;6.37;1.93;;;;;;;21.75;49.83;97041.81;8320793;28;20239;-78
2022/09/15 14:16:25;;;;;;;5.67;1.90;;;;;;;21.75;50.65;97041.81;8320094;28;20224;-81
2022/09/15 14:20:30;;;;;;;5.93;2.20;;;;;;;21.43;50.89;97042.50;8317292;28;20439;-79
2022/09/15 14:24:40;;;;;;;6.00;2.30;;;;;;;21.28;51.95;97042.25;8320143;28;20232;-81
2022/09/15 14:28:49;;;;;;;4.23;1.80;;;;;;;20.59;53.63;97049.22;8319967;28;20280;-81
2022/09/15 14:32:54;;;;;;;5.33;1.70;;;;;;;20.78;54.33;97053.50;8319817;28;20247;-79
2022/09/15 14:37:02;;;;;;;5.17;1.97;;;;;;;20.61;53.53;97048.13;8319723;28;20243;-80
2022/09/15 14:41:06;;;;;;;4.87;1.77;;;;;;;20.86;53.50;97049.09;8319657;28;20228;-79
2022/09/15 14:45:13;;;;;;;6.57;1.70;;;;;;;20.98;53.74;97046.22;8320661;28;20231;-80
2022/09/15 14:49:36;;;;;;;6.23;2.07;;;;;;;21.02;53.87;97047.59;8319398;28;20236;-79
2022/09/15 14:53:40;;;;;;;4.33;1.77;;;;;;;21.27;52.03;97054.59;8319703;28;20473;-84
2022/09/15 14:57:49;;;;;;;2.70;1.70;;;;;;;21.59;51.40;97049.66;8319754;28;20302;-83
2022/09/15 15:01:57;;;;;;;6.53;1.60;;;;;;;21.69;49.60;97047.72;8319259;28;20228;-85
2022/09/15 15:06:03;;;;;;;3.30;1.60;;;;;;;21.81;49.67;97054.34;8319276;28;20235;-85
2022/09/15 15:10:28;;;;;;;3.70;1.67;;;;;;;21.48;51.69;97059.50;8319342;28;20244;-86
2022/09/15 15:14:38;;;;;;;3.40;1.90;;;;;;;21.17;51.08;97051.28;8319515;28;20225;-84
2022/09/15 15:18:41;;;;;;;2.83;1.63;;;;;;;21.03;52.30;97049.22;8318919;28;20232;-84
2022/09/15 15:22:45;;;;;;;8.57;3.00;;;;;;;20.82;52.16;97066.19;8319101;28;20554;-82
2022/09/15 15:26:49;;;;;;;2.97;1.90;;;;;;;20.52;50.97;97067.41;8318451;28;20237;-82
2022/09/15 15:31:06;;;;;;;4.87;2.10;;;;;;;20.33;50.50;97071.03;8318498;28;20231;-84
2022/09/15 15:35:15;;;;;;;3.93;2.13;;;;;;;20.06;50.87;97069.31;8318638;28;20340;-80
2022/09/15 15:39:24;;;;;;;3.83;1.97;;;;;;;19.99;51.18;97084.03;8318287;28;20233;-84
2022/09/15 15:43:27;;;;;;;4.43;2.20;;;;;;;19.94;51.49;97097.63;8318751;28;20413;-85
2022/09/15 15:47:33;;;;;;;3.57;1.70;;;;;;;19.94;52.76;97100.25;8318337;28;20248;-81
2022/09/15 15:51:35;;;;;;;2.43;1.80;;;;;;;19.92;53.10;97104.81;8318145;28;20235;-82
2022/09/15 15:55:41;;;;;;;2.83;1.93;;;;;;;19.91;52.37;97097.91;8317544;28;20231;-82
2022/09/15 15:59:43;;;;;;;3.87;2.13;;;;;;;20.03;53.19;97091.47;8319364;28;20231;-81
2022/09/15 16:03:47;;;;;;;2.90;1.83;;;;;;;20.14;53.22;97094.84;8317778;28;20247;-80
2022/09/15 16:07:51;;;;;;;5.97;1.90;;;;;;;20.14;53.79;97093.03;8316778;28;20240;-83
2022/09/15 16:11:54;;;;;;;3.37;1.90;;;;;;;20.11;53.99;97098.63;8317050;28;20234;-82
2022/09/15 16:15:58;;;;;;;3.80;1.70;;;;;;;20.13;54.44;97098.47;8317229;28;20243;-79
2022/09/15 16:20:03;;;;;;;3.00;2.00;;;;;;;20.02;53.27;97105.56;8316780;28;20229;-79
2022/09/15 16:24:07;;;;;;;7.47;2.70;;;;;;;19.83;51.88;97109.16;8316924;28;20234;-77
2022/09/15 16:28:10;;;;;;;6.83;2.60;;;;;;;19.87;51.61;97110.50;8316371;28;20553;-79
2022/09/15 16:32:17;;;;;;;5.37;2.83;;;;;;;19.75;50.55;97109.06;8315544;28;20228;-78
2022/09/15 16:36:22;;;;;;;4.40;2.70;;;;;;;19.68;51.07;97118.47;8316576;28;20239;-78
2022/09/15 16:40:25;;;;;;;5.33;2.70;;;;;;;19.55;51.19;97121.41;8316752;28;20410;-79
2022/09/15 16:44:28;;;;;;;6.63;2.53;;;;;;;19.52;50.95;97130.41;8316302;28;20243;-78
2022/09/15 16:48:31;;;;;;;3.17;2.50;;;;;;;19.42;51.63;97140.16;8316148;28;20246;-80
2022/09/15 16:52:35;;;;;;;3.67;2.60;;;;;;;19.33;51.54;97138.38;8315615;28;20293;-80
2022/09/15 16:56:38;;;;;;;3.03;2.60;;;;;;;19.19;51.79;97150.16;8315797;28;20227;-80
2022/09/15 17:00:41;;;;;;;6.17;2.87;;;;;;;19.21;51.92;97153.47;8315536;28;20538;-81
2022/09/15 17:04:44;;;;;;;5.00;2.20;;;;;;;19.13;52.23;97156.81;8315522;28;20235;-79
2022/09/15 17:08:48;;;;;;;6.20;2.57;;;;;;;19.16;53.08;97150.44;8315239;28;20258;-77
2022/09/15 17:12:51;;;;;;;4.93;2.43;;;;;;;19.03;53.70;97160.41;8314988;28;20240;-77
2022/09/15 17:16:54;;;;;;;5.30;2.50;;;;;;;18.97;53.44;97160.97;8315602;28;20255;-78
2022/09/15 17:20:57;;;;;;;5.93;2.50;;;;;;;18.95;53.23;97172.41;8315036;28;20241;-76
2022/09/15 17:25:01;;;;;;;3.10;2.20;;;;;;;19.05;53.47;97172.41;8314859;28;20242;-78
2022/09/15 17:29:04;;;;;;;5.97;2.63;;;;;;;18.99;54.08;97182.66;8314225;28;20265;-77
2022/09/15 17:33:10;;;;;;;3.20;2.33;;;;;;;18.91;54.64;97184.16;8314616;28;20585;-77
2022/09/15 17:37:12;;;;;;;7.47;2.80;;;;;;;18.94;54.58;97183.03;8314718;28;20265;-76
2022/09/15 17:41:18;;;;;;;3.97;2.47;;;;;;;18.88;55.56;97187.06;8314601;28;20235;-78
2022/09/15 17:45:23;;;;;;;5.13;2.67;;;;;;;18.83;55.79;97184.03;8314043;28;20527;-83
2022/09/15 17:49:26;;;;;;;4.83;2.63;;;;;;;18.81;55.69;97191.22;8313384;28;20245;-80
2022/09/15 17:53:29;;;;;;;6.37;3.03;;;;;;;18.77;56.95;97197.66;8314519;28;20237;-82
2022/09/15 17:57:33;;;;;;;4.13;2.50;;;;;;;18.77;55.96;97195.03;8314438;28;20265;-80
2022/09/15 18:01:36;;;;;;;5.63;3.53;;;;;;;18.71;57.00;97204.28;8313739;28;20259;-78
2022/09/15 18:05:39;;;;;;;8.53;3.60;;;;;;;18.63;57.52;97206.75;8314016;28;20282;-78
2022/09/15 18:09:42;;;;;;;5.27;3.27;;;;;;;18.68;57.25;97203.75;8314073;28;20247;-78
2022/09/15 18:13:46;;;;;;;5.20;3.10;;;;;;;18.67;57.25;97199.47;8313788;28;20240;-76
2022/09/15 18:17:49;;;;;;;5.43;2.90;;;;;;;18.62;56.84;97201.66;8313308;28;20237;-76
2022/09/15 18:21:52;;;;;;;6.80;3.27;;;;;;;18.53;57.58;97198.91;8313771;28;20230;-79
2022/09/15 18:25:56;;;;;;;9.93;3.90;;;;;;;18.58;57.00;97213.38;8313849;28;20241;-78
2022/09/15 18:30:00;;;;;;;4.53;3.33;;;;;;;18.52;57.71;97217.38;8313684;28;20556;-83
2022/09/15 18:34:03;;;;;;;5.87;3.13;;;;;;;18.38;56.90;97221.22;8313664;28;20255;-82
2022/09/15 18:38:05;;;;;;;4.57;2.80;;;;;;;18.37;57.72;97216.94;8313802;28;20236;-79
2022/09/15 18:42:08;;;;;;;9.40;3.00;;;;;;;18.29;56.47;97224.66;8313683;28;20230;-84
2022/09/15 18:46:13;;;;;;;8.13;2.80;;;;;;;18.33;57.28;97233.91;8313663;28;20289;-84
2022/09/15 18:50:17;;;;;;;4.30;2.80;;;;;;;18.25;57.47;97234.56;8313494;28;20238;-81
2022/09/15 18:54:20;;;;;;;5.63;3.03;;;;;;;18.20;57.42;97236.78;8314065;28;20254;-82
2022/09/15 18:58:23;;;;;;;4.70;3.50;;;;;;;18.21;57.14;97238.44;8318906;28;20303;-82
2022/09/15 19:02:27;;;;;;;5.10;3.40;;;;;;;18.20;57.43;97241.16;8317997;28;20515;-81
2022/09/15 19:06:30;;;;;;;5.37;3.00;;;;;;;18.15;57.15;97241.59;8315842;28;20239;-83
2022/09/15 19:10:33;;;;;;;6.47;3.47;;;;;;;18.05;57.33;97233.69;8318780;28;20238;-82
2022/09/15 19:14:36;;;;;;;10.10;4.33;;;;;;;17.96;57.59;97234.47;8318856;28;20241;-84
2022/09/15 19:18:43;;;;;;;7.30;4.50;;;;;;;17.96;58.17;97245.78;8318682;28;20260;-79
2022/09/15 19:22:50;;;;;;;5.73;3.97;;;;;;;17.85;58.30;97245.06;8318571;28;20287;-78